Time;durP1;ratioP1;P1;durP2;ratioP2;P2;SDS_P1;SDS_P2;PMS_P1;PMS_P2;Temp;Humidity;BMP_temperature;BMP_pressure;BME280_temperature;BME280_humidity;BME280_pressure;Samples;Min_cycle;Max_cycle;Signal;HPM_P1;HPM_P2
2021/06/14 00:00:34;;;;;;;2.50;1.63;;;24.60;42.10;;;;;;5013422;28;20030;-50
2021/06/14 00:02:59;;;;;;;3.85;1.40;;;24.60;42.10;;;;;;5013498;28;20029;-47
2021/06/14 00:05:30;;;;;;;3.13;1.70;;;24.60;41.80;;;;;;5012306;28;20029;-49
2021/06/14 00:07:56;;;;;;;3.00;1.60;;;24.60;41.70;;;;;;5012719;28;20080;-49
2021/06/14 00:10:25;;;;;;;4.00;1.80;;;24.60;42.00;;;;;;5011346;28;20083;-50
2021/06/14 00:12:51;;;;;;;5.28;1.85;;;24.60;41.90;;;;;;5012481;28;20030;-51
2021/06/14 00:15:16;;;;;;;4.22;2.55;;;24.60;41.80;;;;;;5011951;28;20034;-49
2021/06/14 00:17:42;;;;;;;3.05;1.52;;;24.60;42.00;;;;;;5012958;28;20034;-48
2021/06/14 00:20:11;;;;;;;2.58;1.65;;;24.60;41.90;;;;;;5011233;28;20483;-49
2021/06/14 00:22:42;;;;;;;3.53;1.70;;;24.60;42.00;;;;;;5013079;28;20053;-48
2021/06/14 00:25:10;;;;;;;3.97;1.77;;;24.60;41.90;;;;;;5011272;28;20371;-46
2021/06/14 00:27:35;;;;;;;3.40;1.55;;;24.60;41.90;;;;;;5012662;28;20364;-47
2021/06/14 00:30:02;;;;;;;2.20;1.40;;;24.50;41.80;;;;;;5012258;28;20033;-47
2021/06/14 00:32:27;;;;;;;3.67;2.33;;;24.50;42.40;;;;;;5011600;28;20463;-46
2021/06/14 00:34:53;;;;;;;3.72;1.80;;;24.50;41.90;;;;;;5012211;28;20153;-49
2021/06/14 00:37:19;;;;;;;2.47;1.70;;;24.50;41.90;;;;;;5005059;28;20030;-50
2021/06/14 00:39:45;;;;;;;3.60;1.77;;;24.50;41.60;;;;;;5027824;28;20034;-50
2021/06/14 00:42:11;;;;;;;3.42;1.83;;;24.40;42.00;;;;;;5017438;28;20092;-47
2021/06/14 00:44:37;;;;;;;2.65;1.75;;;24.40;41.60;;;;;;5012059;28;20037;-48
2021/06/14 00:47:03;;;;;;;2.88;1.48;;;24.40;41.70;;;;;;5012453;28;20071;-48
2021/06/14 00:49:29;;;;;;;3.10;1.60;;;24.40;41.80;;;;;;5011272;28;20026;-47
2021/06/14 00:51:54;;;;;;;4.22;1.40;;;24.50;41.90;;;;;;5011577;28;20053;-49
2021/06/14 00:54:20;;;;;;;5.75;1.60;;;24.50;42.00;;;;;;5011138;28;20030;-49
2021/06/14 00:56:46;;;;;;;3.47;1.88;;;24.30;41.60;;;;;;5011515;28;20080;-50
2021/06/14 00:59:13;;;;;;;1.85;1.50;;;24.30;41.80;;;;;;5010964;28;20446;-47
2021/06/14 01:01:38;;;;;;;2.63;1.55;;;24.30;41.80;;;;;;5012201;28;20494;-47
2021/06/14 01:04:04;;;;;;;3.28;1.70;;;24.40;42.00;;;;;;5012643;28;20035;-50
2021/06/14 01:06:30;;;;;;;3.17;1.55;;;24.40;41.80;;;;;;5010825;28;20063;-47
2021/06/14 01:08:55;;;;;;;4.75;1.70;;;24.40;41.80;;;;;;5004973;28;20379;-47
2021/06/14 01:11:46;;;;;;;3.72;1.65;;;24.40;41.70;;;;;;5010251;28;20053;-47
2021/06/14 01:14:45;;;;;;;3.25;1.60;;;24.40;41.70;;;;;;5010848;28;20030;-47
2021/06/14 01:17:35;;;;;;;3.67;1.50;;;24.30;41.70;;;;;;5011387;28;20056;-50
2021/06/14 01:20:26;;;;;;;3.80;1.45;;;24.40;41.80;;;;;;5011874;28;20030;-48
2021/06/14 01:23:17;;;;;;;3.25;1.73;;;24.40;41.80;;;;;;5003362;28;20495;-50
2021/06/14 01:26:02;;;;;;;2.20;1.63;;;24.40;41.80;;;;;;5010941;28;20045;-50
2021/06/14 01:28:30;;;;;;;3.05;1.40;;;24.40;41.80;;;;;;5010804;28;20092;-50
2021/06/14 01:30:57;;;;;;;4.55;1.60;;;24.40;41.80;;;;;;5011330;28;20030;-49
2021/06/14 01:33:26;;;;;;;3.70;1.75;;;24.40;41.80;;;;;;5010642;28;20026;-50
2021/06/14 01:36:05;;;;;;;2.38;1.40;;;24.40;41.80;;;;;;5011515;28;20030;-51
2021/06/14 01:38:32;;;;;;;3.45;1.63;;;24.40;41.70;;;;;;5010493;28;20483;-53
2021/06/14 01:41:06;;;;;;;2.17;1.58;;;24.40;41.90;;;;;;5011002;28;20029;-50
2021/06/14 01:43:35;;;;;;;2.97;1.73;;;24.40;41.90;;;;;;5004194;28;20033;-49
2021/06/14 01:46:11;;;;;;;3.88;1.70;;;24.40;41.70;;;;;;5011620;28;20475;-48
2021/06/14 01:48:38;;;;;;;2.33;1.48;;;24.40;41.80;;;;;;5011785;28;20033;-48
2021/06/14 01:51:06;;;;;;;4.40;2.08;;;24.40;41.80;;;;;;5010556;28;20510;-47
2021/06/14 01:53:32;;;;;;;4.03;1.75;;;24.40;41.90;;;;;;5010780;28;20030;-52
2021/06/14 01:55:58;;;;;;;3.05;1.40;;;24.40;41.70;;;;;;5010925;28;20105;-50
2021/06/14 01:58:24;;;;;;;2.08;1.50;;;24.30;41.70;;;;;;5010409;28;20129;-49
2021/06/14 02:00:51;;;;;;;4.60;1.95;;;24.40;41.80;;;;;;5011131;28;20069;-52
2021/06/14 02:03:17;;;;;;;2.20;1.52;;;24.30;41.80;;;;;;5010659;28;20056;-49
2021/06/14 02:05:45;;;;;;;2.35;1.60;;;24.30;41.80;;;;;;5010562;28;20036;-48
2021/06/14 02:08:13;;;;;;;3.38;1.55;;;24.30;42.10;;;;;;5003389;28;20470;-50
2021/06/14 02:10:41;;;;;;;3.13;1.70;;;24.30;41.90;;;;;;5010859;28;20038;-48
2021/06/14 02:13:07;;;;;;;3.47;1.67;;;24.30;42.00;;;;;;5010854;28;20025;-51
2021/06/14 02:15:33;;;;;;;4.63;1.67;;;24.30;41.90;;;;;;5010560;28;20112;-52
2021/06/14 02:18:01;;;;;;;2.00;1.40;;;24.30;41.80;;;;;;5013939;28;20030;-52
2021/06/14 02:20:27;;;;;;;3.38;1.63;;;24.30;41.70;;;;;;5013888;28;20553;-52
2021/06/14 02:22:53;;;;;;;3.63;1.88;;;24.30;41.70;;;;;;5014461;28;20390;-50
2021/06/14 02:25:19;;;;;;;2.80;1.60;;;24.30;41.80;;;;;;5013641;28;20530;-53
2021/06/14 02:27:45;;;;;;;6.40;1.52;;;24.30;41.80;;;;;;5013989;28;20037;-52
2021/06/14 02:30:18;;;;;;;2.55;1.40;;;24.30;41.80;;;;;;5014011;28;20105;-51
2021/06/14 02:32:44;;;;;;;3.58;1.65;;;24.30;41.80;;;;;;5014636;28;20391;-53
2021/06/14 02:35:11;;;;;;;3.03;1.60;;;24.30;41.90;;;;;;5014198;28;20042;-52
2021/06/14 02:37:42;;;;;;;2.10;1.40;;;24.30;41.80;;;;;;5014857;28;20030;-52
2021/06/14 02:40:09;;;;;;;2.70;1.70;;;24.30;41.70;;;;;;5014718;28;20025;-51
2021/06/14 02:42:37;;;;;;;3.95;1.75;;;24.30;41.80;;;;;;5013341;28;20034;-48
2021/06/14 02:45:04;;;;;;;3.78;1.70;;;24.30;41.80;;;;;;5014115;28;20064;-50
2021/06/14 02:47:31;;;;;;;3.58;1.98;;;24.30;41.80;;;;;;5013293;28;20712;-49
2021/06/14 02:49:58;;;;;;;3.83;1.73;;;24.30;41.90;;;;;;5014204;28;20356;-52
2021/06/14 02:52:26;;;;;;;5.55;2.10;;;24.30;41.90;;;;;;5012630;28;20045;-48
2021/06/14 02:55:01;;;;;;;3.78;1.75;;;24.30;41.80;;;;;;5014360;28;20029;-49
2021/06/14 02:57:28;;;;;;;4.03;1.85;;;24.30;42.00;;;;;;5012969;28;20026;-47
2021/06/14 02:59:55;;;;;;;5.68;2.00;;;24.20;42.00;;;;;;5013918;28;20479;-51
2021/06/14 03:02:23;;;;;;;3.88;1.60;;;24.20;42.00;;;;;;5013044;28;20029;-51
2021/06/14 03:04:49;;;;;;;2.88;1.58;;;24.20;41.90;;;;;;5013961;28;20423;-48
2021/06/14 03:07:19;;;;;;;4.03;1.48;;;24.20;42.10;;;;;;5010521;28;20037;-47
2021/06/14 03:09:45;;;;;;;2.92;1.33;;;24.20;42.00;;;;;;5014091;28;20026;-48
2021/06/14 03:12:12;;;;;;;3.92;1.90;;;24.20;42.00;;;;;;5013158;28;20091;-49
2021/06/14 03:14:38;;;;;;;3.80;1.80;;;24.20;42.00;;;;;;5013114;28;20021;-50
2021/06/14 03:17:04;;;;;;;3.47;1.60;;;24.20;41.90;;;;;;5013571;28;20482;-50
2021/06/14 03:19:32;;;;;;;2.63;1.70;;;24.20;42.00;;;;;;5012596;28;20036;-49
2021/06/14 03:21:58;;;;;;;3.78;1.77;;;24.20;41.90;;;;;;5013481;28;20482;-47
2021/06/14 03:24:24;;;;;;;3.60;1.80;;;24.20;42.00;;;;;;5012798;28;20026;-47
2021/06/14 03:26:49;;;;;;;3.63;1.55;;;24.20;42.00;;;;;;5013287;28;20032;-48
2021/06/14 03:29:23;;;;;;;3.40;1.63;;;24.20;41.90;;;;;;5011962;28;20037;-48
2021/06/14 03:31:50;;;;;;;2.10;1.60;;;24.20;42.60;;;;;;5013311;28;20052;-48
2021/06/14 03:34:18;;;;;;;5.00;1.40;;;24.20;41.90;;;;;;5012613;28;20391;-48
2021/06/14 03:36:45;;;;;;;4.30;1.85;;;24.20;41.90;;;;;;5013388;28;20033;-48
2021/06/14 03:39:14;;;;;;;4.18;1.70;;;24.20;42.00;;;;;;5012819;28;20033;-52
2021/06/14 03:41:47;;;;;;;4.20;2.10;;;24.20;42.00;;;;;;5013234;28;20040;-49
2021/06/14 03:44:14;;;;;;;2.75;1.80;;;24.20;42.10;;;;;;5012472;28;20467;-47
2021/06/14 03:46:40;;;;;;;3.50;1.98;;;24.20;42.00;;;;;;5013129;28;20030;-48
2021/06/14 03:49:06;;;;;;;2.70;1.65;;;24.20;42.00;;;;;;5013028;28;20030;-47
2021/06/14 03:51:32;;;;;;;3.17;1.73;;;24.20;42.20;;;;;;5011748;28;20641;-49
2021/06/14 03:53:59;;;;;;;3.10;2.15;;;24.10;42.10;;;;;;5013477;28;20049;-48
2021/06/14 03:56:27;;;;;;;3.45;1.77;;;24.20;42.20;;;;;;5024978;28;20452;-51
2021/06/14 03:58:53;;;;;;;3.70;1.90;;;24.20;42.20;;;;;;5013176;28;20151;-48
2021/06/14 04:01:20;;;;;;;6.15;1.88;;;24.10;42.00;;;;;;5012124;28;20033;-48
2021/06/14 04:03:57;;;;;;;5.55;2.25;;;24.20;42.20;;;;;;5012541;28;20463;-47
2021/06/14 04:06:23;;;;;;;2.70;1.63;;;24.20;42.20;;;;;;5011638;28;20438;-48
2021/06/14 04:08:48;;;;;;;2.80;1.58;;;24.20;42.10;;;;;;5012895;28;20034;-52
2021/06/14 04:11:14;;;;;;;4.25;1.60;;;24.20;42.10;;;;;;5011702;28;20562;-49
2021/06/14 04:13:39;;;;;;;4.60;1.73;;;24.20;42.10;;;;;;5012281;28;20057;-49
2021/06/14 04:16:05;;;;;;;4.47;1.90;;;24.20;42.10;;;;;;5012351;28;20068;-49
2021/06/14 04:18:31;;;;;;;4.50;1.98;;;24.20;42.50;;;;;;5011846;28;20578;-50
2021/06/14 04:20:56;;;;;;;4.25;1.77;;;24.20;42.30;;;;;;5012395;28;20537;-48
2021/06/14 04:23:22;;;;;;;6.57;1.88;;;24.20;42.40;;;;;;5011469;28;20105;-47
2021/06/14 04:25:47;;;;;;;3.67;1.92;;;24.20;42.50;;;;;;5012276;28;20084;-48
2021/06/14 04:28:13;;;;;;;6.97;1.95;;;24.10;42.40;;;;;;5011822;28;20029;-49
2021/06/14 04:30:39;;;;;;;4.85;2.08;;;24.10;42.50;;;;;;5011690;28;20181;-49
2021/06/14 04:33:05;;;;;;;5.35;2.08;;;24.10;42.60;;;;;;5012237;28;20025;-49
2021/06/14 04:35:31;;;;;;;5.32;2.33;;;24.10;42.70;;;;;;5011464;28;20034;-47
2021/06/14 04:37:56;;;;;;;3.38;2.05;;;24.10;42.80;;;;;;5012235;28;20080;-50
2021/06/14 04:40:22;;;;;;;5.28;2.65;;;24.10;43.00;;;;;;5009546;28;20076;-48
2021/06/14 04:42:47;;;;;;;4.18;2.17;;;24.10;43.00;;;;;;5011534;28;20041;-48
2021/06/14 04:45:14;;;;;;;5.97;2.13;;;24.10;43.10;;;;;;5010871;28;20053;-48
2021/06/14 04:47:40;;;;;;;6.82;2.83;;;24.00;43.30;;;;;;5011691;28;20526;-48
2021/06/14 04:50:07;;;;;;;5.15;1.83;;;24.10;43.20;;;;;;5011947;28;20045;-51
2021/06/14 04:52:33;;;;;;;3.92;2.17;;;24.10;43.20;;;;;;5011221;28;20471;-48
2021/06/14 04:54:58;;;;;;;4.53;2.10;;;24.10;43.30;;;;;;5011476;28;20148;-52
2021/06/14 04:57:24;;;;;;;4.78;2.05;;;24.10;43.30;;;;;;5011211;28;20061;-50
2021/06/14 04:59:51;;;;;;;4.43;2.05;;;24.10;43.50;;;;;;5011620;28;20037;-51
2021/06/14 05:02:17;;;;;;;10.45;1.95;;;24.20;43.60;;;;;;5010984;28;20458;-51
2021/06/14 05:04:42;;;;;;;5.00;2.30;;;24.10;43.90;;;;;;5011432;28;20030;-50
2021/06/14 05:07:08;;;;;;;4.78;2.10;;;24.10;44.10;;;;;;5011130;28;20028;-47
2021/06/14 05:09:34;;;;;;;4.25;2.10;;;24.10;44.00;;;;;;5010858;28;20029;-45
2021/06/14 05:11:59;;;;;;;4.32;2.35;;;24.20;44.00;;;;;;5011056;28;20037;-47
2021/06/14 05:14:25;;;;;;;4.00;2.20;;;24.10;44.10;;;;;;5010740;28;20038;-46
2021/06/14 05:16:51;;;;;;;4.15;2.17;;;24.20;44.10;;;;;;5011237;28;20110;-48
2021/06/14 05:19:17;;;;;;;4.38;2.30;;;24.20;44.10;;;;;;5010125;28;20088;-49
2021/06/14 05:21:42;;;;;;;6.72;2.15;;;24.20;44.00;;;;;;5011614;28;20113;-49
2021/06/14 05:24:08;;;;;;;7.47;2.58;;;24.10;43.80;;;;;;5011591;28;20034;-46
2021/06/14 05:26:34;;;;;;;5.18;2.50;;;24.10;43.70;;;;;;5010673;28;20602;-47
2021/06/14 05:28:59;;;;;;;5.32;2.30;;;24.10;43.60;;;;;;5010482;28;20030;-47
2021/06/14 05:31:25;;;;;;;6.97;2.45;;;24.00;43.80;;;;;;5010580;28;20084;-47
2021/06/14 05:33:51;;;;;;;6.60;2.95;;;24.00;43.90;;;;;;5011668;28;20104;-50
2021/06/14 05:36:16;;;;;;;7.78;2.45;;;24.10;44.00;;;;;;5010688;28;20026;-48
2021/06/14 05:38:42;;;;;;;8.20;2.92;;;24.10;44.00;;;;;;5011226;28;20030;-49
2021/06/14 05:41:08;;;;;;;6.75;2.83;;;24.20;44.10;;;;;;5011659;28;20057;-51
2021/06/14 05:43:33;;;;;;;5.13;2.67;;;24.10;44.40;;;;;;5010694;28;20103;-50
2021/06/14 05:45:59;;;;;;;5.80;2.42;;;24.10;44.50;;;;;;5011621;28;20099;-48
2021/06/14 05:48:25;;;;;;;7.65;3.22;;;24.10;44.50;;;;;;5010198;28;20119;-53
2021/06/14 05:50:51;;;;;;;7.53;2.95;;;24.20;44.60;;;;;;5011612;28;20045;-53
2021/06/14 05:53:17;;;;;;;11.20;3.58;;;24.20;44.60;;;;;;5014372;28;20045;-51
2021/06/14 05:55:42;;;;;;;6.00;2.75;;;24.20;44.50;;;;;;5014997;28;20509;-50
2021/06/14 05:58:08;;;;;;;6.93;2.70;;;24.20;45.10;;;;;;5015362;28;20498;-51
2021/06/14 06:00:34;;;;;;;7.88;2.88;;;24.20;45.10;;;;;;5013641;28;20033;-50
2021/06/14 06:03:00;;;;;;;8.88;3.22;;;24.20;45.50;;;;;;5014269;28;20114;-51
2021/06/14 06:05:25;;;;;;;6.65;3.00;;;24.20;45.40;;;;;;5013580;28;20021;-52
2021/06/14 06:07:51;;;;;;;11.98;2.92;;;24.20;45.50;;;;;;5011985;28;20034;-46
2021/06/14 06:10:17;;;;;;;13.95;3.53;;;24.20;45.40;;;;;;5014463;28;20022;-51
2021/06/14 06:12:43;;;;;;;8.05;2.70;;;24.20;44.80;;;;;;5014642;28;20038;-50
2021/06/14 06:15:16;;;;;;;7.78;2.63;;;24.20;44.80;;;;;;5007201;28;20030;-47
2021/06/14 06:17:42;;;;;;;4.95;2.55;;;24.20;44.30;;;;;;5015546;28;20057;-50
2021/06/14 06:20:10;;;;;;;7.15;2.58;;;24.20;44.20;;;;;;5014445;28;20072;-48
2021/06/14 06:22:37;;;;;;;4.55;2.47;;;24.20;44.30;;;;;;5013502;28;20052;-47
2021/06/14 06:25:07;;;;;;;7.50;2.85;;;24.10;44.00;;;;;;5013589;28;20057;-46
2021/06/14 06:27:33;;;;;;;6.95;3.17;;;24.00;43.80;;;;;;5013548;28;20030;-48
2021/06/14 06:29:59;;;;;;;5.43;2.33;;;24.00;43.90;;;;;;5014013;28;20033;-49
2021/06/14 06:32:25;;;;;;;7.18;2.83;;;24.00;43.80;;;;;;5013209;28;20479;-48
2021/06/14 06:34:51;;;;;;;7.05;2.70;;;24.10;43.80;;;;;;5013757;28;20083;-49
2021/06/14 06:37:17;;;;;;;3.88;2.28;;;24.10;43.70;;;;;;5013924;28;20053;-46
2021/06/14 06:39:43;;;;;;;5.55;2.38;;;24.10;43.40;;;;;;5013809;28;20041;-48
2021/06/14 06:42:09;;;;;;;7.80;2.67;;;24.10;43.40;;;;;;5014133;28;20030;-52
2021/06/14 06:44:36;;;;;;;6.43;2.47;;;24.00;43.50;;;;;;5013870;28;20026;-46
2021/06/14 06:47:04;;;;;;;6.07;2.42;;;24.00;43.60;;;;;;5014299;28;20060;-46
2021/06/14 06:49:31;;;;;;;7.65;2.58;;;23.90;43.30;;;;;;5013850;28;20080;-51
2021/06/14 06:51:58;;;;;;;5.75;2.50;;;23.80;43.20;;;;;;5013357;28;20142;-46
2021/06/14 06:54:24;;;;;;;7.85;2.67;;;23.80;43.40;;;;;;5013191;28;20032;-47
2021/06/14 06:56:52;;;;;;;4.25;2.08;;;23.80;43.30;;;;;;5028843;28;20026;-46
2021/06/14 06:59:19;;;;;;;5.53;1.98;;;23.90;43.30;;;;;;5016389;28;20086;-46
2021/06/14 07:01:44;;;;;;;3.08;1.77;;;24.00;43.20;;;;;;5018088;28;20030;-49
2021/06/14 07:04:10;;;;;;;3.50;1.98;;;23.90;42.90;;;;;;5011028;28;20034;-48
2021/06/14 07:06:36;;;;;;;4.05;1.90;;;24.00;42.90;;;;;;5011802;28;20128;-47
2021/06/14 07:09:03;;;;;;;5.43;2.05;;;24.00;42.80;;;;;;5010113;28;20109;-50
2021/06/14 07:11:30;;;;;;;7.78;2.47;;;23.90;42.90;;;;;;5012927;28;20026;-46
2021/06/14 07:13:56;;;;;;;3.17;1.88;;;23.90;43.00;;;;;;5021777;28;20037;-47
2021/06/14 07:16:23;;;;;;;3.50;2.03;;;23.80;42.80;;;;;;5016432;28;20030;-47
2021/06/14 07:18:50;;;;;;;3.83;2.17;;;23.90;42.60;;;;;;5013644;28;20065;-46
2021/06/14 07:21:15;;;;;;;6.20;2.40;;;23.80;42.50;;;;;;5012840;28;20063;-47
2021/06/14 07:23:41;;;;;;;5.88;2.30;;;23.90;42.50;;;;;;5011898;28;20607;-50
2021/06/14 07:26:08;;;;;;;4.57;2.13;;;23.80;42.50;;;;;;5012945;28;20026;-47
2021/06/14 07:28:34;;;;;;;5.40;2.00;;;23.90;42.40;;;;;;5012612;28;20033;-47
2021/06/14 07:31:01;;;;;;;8.98;2.20;;;24.00;42.30;;;;;;5037896;28;20850;-46
2021/06/14 07:33:27;;;;;;;6.45;2.70;;;24.00;42.40;;;;;;5013563;28;20056;-48
2021/06/14 07:35:53;;;;;;;5.30;2.00;;;24.00;42.30;;;;;;5013772;28;20041;-47
2021/06/14 07:38:19;;;;;;;8.32;2.33;;;23.90;42.40;;;;;;5013432;28;20459;-46
2021/06/14 07:40:45;;;;;;;11.52;2.80;;;23.90;42.60;;;;;;5013364;28;20088;-49
2021/06/14 07:43:14;;;;;;;16.65;2.75;;;24.00;43.00;;;;;;5013381;28;20033;-47
2021/06/14 07:45:41;;;;;;;11.40;2.20;;;24.00;43.20;;;;;;5012071;28;20084;-47
2021/06/14 07:48:08;;;;;;;4.82;2.22;;;24.10;43.30;;;;;;5013401;28;20022;-49
2021/06/14 07:50:34;;;;;;;3.67;2.03;;;24.10;43.40;;;;;;5011893;28;20535;-48
2021/06/14 07:53:01;;;;;;;8.40;2.20;;;24.00;43.50;;;;;;5012297;28;20157;-48
2021/06/14 07:55:27;;;;;;;9.05;2.15;;;24.00;43.40;;;;;;5012061;28;20026;-49
2021/06/14 07:57:53;;;;;;;5.15;2.10;;;24.10;43.60;;;;;;5012929;28;20109;-51
2021/06/14 08:00:19;;;;;;;5.70;1.95;;;24.10;43.70;;;;;;5015632;28;20109;-48
2021/06/14 08:02:47;;;;;;;4.90;2.20;;;24.10;43.70;;;;;;5011929;28;20030;-48
2021/06/14 08:05:13;;;;;;;4.57;1.88;;;24.10;43.60;;;;;;5012045;28;20022;-49
2021/06/14 08:07:39;;;;;;;6.93;2.13;;;24.10;43.50;;;;;;5009709;28;20534;-50
2021/06/14 08:10:07;;;;;;;6.30;2.65;;;24.10;43.60;;;;;;5012393;28;20096;-47
2021/06/14 08:12:38;;;;;;;5.47;2.15;;;24.10;43.60;;;;;;5011812;28;20034;-47
2021/06/14 08:15:04;;;;;;;8.73;2.13;;;24.10;43.70;;;;;;5012130;28;20042;-47
2021/06/14 08:17:30;;;;;;;4.75;1.75;;;24.10;43.90;;;;;;5011540;28;20092;-48
2021/06/14 08:27:44;;;;;;;7.00;2.00;;;24.20;43.90;;;;;;5014678;28;20605;-49
2021/06/14 08:30:14;;;;;;;4.75;1.90;;;24.10;44.20;;;;;;5016856;28;20108;-47
2021/06/14 08:32:40;;;;;;;3.13;1.50;;;24.20;43.80;;;;;;5011550;28;20042;-50
2021/06/14 08:35:08;;;;;;;4.55;1.98;;;24.20;43.90;;;;;;5011625;28;20034;-48
2021/06/14 08:37:34;;;;;;;4.82;2.08;;;24.20;43.90;;;;;;5011576;28;20133;-47
2021/06/14 08:40:00;;;;;;;5.55;2.00;;;24.20;43.90;;;;;;5012033;28;20076;-47
2021/06/14 08:42:26;;;;;;;2.90;1.60;;;24.20;43.90;;;;;;5010528;28;20033;-51
2021/06/14 08:44:51;;;;;;;6.05;1.77;;;24.20;44.10;;;;;;5012287;28;20495;-50
2021/06/14 08:47:18;;;;;;;2.85;1.73;;;24.20;44.10;;;;;;5012266;28;20029;-49
2021/06/14 08:49:44;;;;;;;4.40;1.60;;;24.20;44.00;;;;;;5026488;28;20029;-48
2021/06/14 08:52:11;;;;;;;6.53;1.77;;;24.30;44.20;;;;;;5011718;28;20050;-52
2021/06/14 08:54:41;;;;;;;2.45;1.52;;;24.30;44.20;;;;;;5010961;28;20026;-49
2021/06/14 08:57:07;;;;;;;4.60;1.92;;;24.20;44.00;;;;;;5011747;28;20112;-47
2021/06/14 08:59:33;;;;;;;3.42;2.00;;;24.30;43.70;;;;;;5013243;28;20030;-51
2021/06/14 09:01:59;;;;;;;3.85;2.22;;;24.30;44.30;;;;;;5011511;28;20395;-50
2021/06/14 09:04:25;;;;;;;4.00;1.77;;;24.30;44.30;;;;;;5010510;28;20033;-48
2021/06/14 09:06:51;;;;;;;6.47;1.70;;;24.30;44.50;;;;;;5002346;28;20030;-50
2021/06/14 09:09:17;;;;;;;3.83;1.52;;;24.30;44.50;;;;;;5007827;28;20034;-52
2021/06/14 09:11:53;;;;;;;6.95;1.75;;;24.30;44.40;;;;;;5010865;28;20064;-49
2021/06/14 09:14:25;;;;;;;3.78;1.95;;;24.30;44.60;;;;;;5011572;28;20442;-51
2021/06/14 09:16:51;;;;;;;3.28;1.52;;;24.30;44.40;;;;;;5003299;28;20029;-47
2021/06/14 09:19:26;;;;;;;5.22;1.73;;;24.30;44.60;;;;;;5011062;28;20034;-52
2021/06/14 09:21:55;;;;;;;3.45;1.48;;;24.30;44.60;;;;;;5011166;28;20029;-49
2021/06/14 09:24:21;;;;;;;3.72;1.42;;;24.40;44.70;;;;;;5009845;28;20022;-49
2021/06/14 09:26:47;;;;;;;3.58;2.00;;;24.30;44.80;;;;;;5009583;28;20044;-48
2021/06/14 09:29:15;;;;;;;2.53;1.80;;;24.30;44.90;;;;;;5010552;28;20030;-49
2021/06/14 09:31:48;;;;;;;4.93;1.60;;;24.40;44.80;;;;;;5008114;28;20497;-48
2021/06/14 09:34:15;;;;;;;3.97;1.50;;;24.40;44.40;;;;;;5010619;28;20057;-48
2021/06/14 09:36:46;;;;;;;4.55;1.63;;;24.40;44.90;;;;;;5008983;28;20121;-51
2021/06/14 09:39:15;;;;;;;2.92;1.60;;;24.30;44.30;;;;;;5011198;28;20029;-48
2021/06/14 09:41:43;;;;;;;4.47;1.85;;;24.40;44.80;;;;;;5009251;28;20470;-47
2021/06/14 09:44:10;;;;;;;5.60;1.60;;;24.40;44.80;;;;;;5011638;28;20030;-50
2021/06/14 09:46:36;;;;;;;2.80;1.50;;;24.40;44.30;;;;;;5010348;28;20030;-47
2021/06/14 09:49:06;;;;;;;5.82;1.42;;;24.40;44.70;;;;;;5011177;28;20073;-47
2021/06/14 09:51:34;;;;;;;4.22;1.50;;;24.40;44.40;;;;;;5010098;28;20154;-50
2021/06/14 09:54:00;;;;;;;6.25;1.90;;;24.40;44.70;;;;;;5011219;28;20060;-50
2021/06/14 09:56:35;;;;;;;4.35;1.90;;;24.40;44.50;;;;;;5011077;28;20025;-47
2021/06/14 09:59:02;;;;;;;4.78;1.60;;;24.40;44.40;;;;;;5007577;28;20037;-48
2021/06/14 10:01:34;;;;;;;4.65;1.85;;;24.40;44.90;;;;;;5013052;28;20479;-46
2021/06/14 10:04:05;;;;;;;4.70;1.80;;;24.40;45.10;;;;;;5010775;28;20034;-52
2021/06/14 10:06:54;;;;;;;4.18;1.58;;;24.40;45.00;;;;;;5009864;28;20097;-49
2021/06/14 10:09:20;;;;;;;2.65;1.58;;;24.40;44.60;;;;;;5009506;28;20188;-51
2021/06/14 10:11:46;;;;;;;4.35;1.60;;;24.50;44.70;;;;;;5009057;28;20545;-48
2021/06/14 10:14:18;;;;;;;2.53;1.73;;;24.40;44.90;;;;;;5010793;28;20034;-47
2021/06/14 10:16:48;;;;;;;5.07;1.88;;;24.50;44.80;;;;;;5010178;28;20026;-50
2021/06/14 10:19:16;;;;;;;3.15;1.65;;;24.50;44.70;;;;;;5010587;28;20029;-48
2021/06/14 10:21:45;;;;;;;2.72;1.70;;;24.50;44.70;;;;;;5008239;28;20075;-47
2021/06/14 10:24:19;;;;;;;2.05;1.42;;;24.50;44.90;;;;;;5024606;28;20108;-46
2021/06/14 10:26:47;;;;;;;5.38;2.13;;;24.50;44.80;;;;;;5017528;28;20038;-49
2021/06/14 10:29:15;;;;;;;4.63;2.13;;;24.50;44.50;;;;;;5010461;28;20026;-47
2021/06/14 10:31:43;;;;;;;2.35;1.45;;;24.50;44.50;;;;;;5002366;28;20034;-48
2021/06/14 10:34:10;;;;;;;2.08;1.20;;;24.50;44.90;;;;;;5010474;28;20041;-49
2021/06/14 10:36:37;;;;;;;3.35;1.75;;;24.50;45.10;;;;;;5011456;28;21613;-46
2021/06/14 10:39:04;;;;;;;4.72;1.58;;;24.50;44.70;;;;;;5011733;28;20026;-48
2021/06/14 10:41:30;;;;;;;4.18;1.52;;;24.50;45.10;;;;;;5013208;28;20044;-50
2021/06/14 10:43:55;;;;;;;5.68;1.77;;;24.50;45.60;;;;;;5013704;28;20383;-47
2021/06/14 10:46:26;;;;;;;5.03;1.70;;;24.50;46.80;;;;;;5014084;28;20064;-49
2021/06/14 10:48:57;;;;;;;5.57;1.60;;;24.50;48.40;;;;;;5013293;28;20037;-50
2021/06/14 10:51:24;;;;;;;2.72;1.55;;;24.50;47.80;;;;;;5013732;28;20042;-47
2021/06/14 10:53:59;;;;;;;4.50;1.92;;;24.50;51.00;;;;;;5012548;28;20059;-47
2021/06/14 10:56:25;;;;;;;3.03;1.60;;;24.50;48.20;;;;;;5014056;28;20017;-48
2021/06/14 10:59:03;;;;;;;2.92;1.55;;;24.50;48.10;;;;;;5013340;28;20025;-48
2021/06/14 11:01:31;;;;;;;5.57;2.00;;;24.50;49.80;;;;;;5013144;28;20120;-47
2021/06/14 11:03:56;;;;;;;7.15;1.63;;;24.50;50.00;;;;;;5013675;28;20108;-50
2021/06/14 11:06:23;;;;;;;2.08;1.27;;;24.50;52.60;;;;;;5013658;28;20098;-49
2021/06/14 11:09:09;;;;;;;3.55;1.73;;;24.50;52.40;;;;;;5012425;28;20724;-50
2021/06/14 11:11:48;;;;;;;2.95;1.45;;;24.50;52.00;;;;;;5012237;28;20038;-47
2021/06/14 11:14:26;;;;;;;2.90;1.30;;;24.50;53.00;;;;;;5013189;28;20061;-50
2021/06/14 11:16:52;;;;;;;2.35;1.60;;;24.50;53.40;;;;;;5012151;28;20018;-48
2021/06/14 11:19:18;;;;;;;2.42;1.75;;;24.50;53.90;;;;;;5013529;28;20072;-47
2021/06/14 11:21:53;;;;;;;3.20;1.63;;;24.50;54.80;;;;;;5012829;28;20491;-47
2021/06/14 11:24:19;;;;;;;3.00;1.52;;;24.50;54.80;;;;;;5013000;28;20053;-49
2021/06/14 11:26:55;;;;;;;3.45;1.50;;;24.50;54.40;;;;;;5012603;28;20380;-47
2021/06/14 11:29:21;;;;;;;2.95;1.63;;;24.50;54.30;;;;;;5013955;28;20428;-49
2021/06/14 11:32:02;;;;;;;2.67;1.80;;;24.40;55.20;;;;;;5012940;28;20121;-49
2021/06/14 11:34:39;;;;;;;2.08;1.13;;;24.40;55.20;;;;;;5013033;28;20030;-49
2021/06/14 11:37:05;;;;;;;5.90;1.63;;;24.40;55.10;;;;;;5013006;28;20030;-48
2021/06/14 11:39:31;;;;;;;3.00;1.50;;;24.40;55.00;;;;;;5012642;28;20064;-46
2021/06/14 11:42:08;;;;;;;4.03;1.50;;;24.40;55.30;;;;;;5045029;28;20041;-49
2021/06/14 11:44:33;;;;;;;1.80;1.40;;;24.50;55.30;;;;;;5010908;28;20041;-50
2021/06/14 11:47:13;;;;;;;2.33;1.50;;;24.50;54.60;;;;;;5012696;28;20474;-47
2021/06/14 11:49:39;;;;;;;2.92;1.67;;;24.40;56.10;;;;;;5010341;28;20045;-47
2021/06/14 11:52:20;;;;;;;3.13;1.27;;;24.40;56.40;;;;;;5005717;28;20046;-50
2021/06/14 11:54:49;;;;;;;2.80;1.73;;;24.40;55.90;;;;;;5012945;28;20039;-48
2021/06/14 11:57:15;;;;;;;3.78;1.70;;;24.40;56.10;;;;;;5012756;28;20368;-49
2021/06/14 11:59:41;;;;;;;3.47;1.45;;;24.40;55.50;;;;;;5012955;28;20113;-52
2021/06/14 12:02:21;;;;;;;4.47;1.63;;;24.40;55.80;;;;;;5015556;28;20113;-46
2021/06/14 12:04:55;;;;;;;2.83;1.63;;;24.50;55.20;;;;;;5010995;28;20378;-50
2021/06/14 12:07:34;;;;;;;2.65;1.50;;;24.50;55.90;;;;;;5012754;28;20053;-49
2021/06/14 12:10:08;;;;;;;3.03;1.90;;;24.50;56.50;;;;;;5010549;28;20038;-49
2021/06/14 12:12:35;;;;;;;2.08;1.50;;;24.50;53.40;;;;;;5011670;28;20348;-50
2021/06/14 12:15:01;;;;;;;2.90;1.60;;;24.60;55.70;;;;;;5012405;28;20057;-48
2021/06/14 12:17:33;;;;;;;2.00;1.60;;;24.50;55.00;;;;;;5012107;28;20025;-48
2021/06/14 12:20:00;;;;;;;1.70;1.20;;;24.50;56.00;;;;;;5011678;28;20029;-51
2021/06/14 12:22:28;;;;;;;2.22;1.60;;;24.50;55.10;;;;;;5007704;28;20054;-48
2021/06/14 12:24:54;;;;;;;2.22;1.50;;;24.50;55.50;;;;;;5011363;28;20383;-51
2021/06/14 12:27:21;;;;;;;2.60;1.27;;;24.50;54.00;;;;;;5012061;28;20038;-46
2021/06/14 12:29:59;;;;;;;3.97;1.92;;;24.50;54.30;;;;;;5011645;28;20025;-49
2021/06/14 12:32:24;;;;;;;2.47;1.40;;;24.50;55.20;;;;;;5012060;28;20030;-49
2021/06/14 12:34:51;;;;;;;2.05;1.45;;;24.50;55.50;;;;;;5011258;28;20144;-48
2021/06/14 12:37:22;;;;;;;3.15;1.45;;;24.50;55.40;;;;;;5011554;28;20058;-47
2021/06/14 12:40:16;;;;;;;3.92;1.50;;;24.50;55.60;;;;;;5010826;28;20026;-46
2021/06/14 12:42:42;;;;;;;4.50;1.50;;;24.50;55.70;;;;;;5009530;28;20054;-46
2021/06/14 12:45:13;;;;;;;2.72;1.30;;;24.50;55.40;;;;;;5012041;28;20026;-48
2021/06/14 12:47:48;;;;;;;2.78;1.30;;;24.50;56.20;;;;;;5010878;28;20026;-47
2021/06/14 12:50:22;;;;;;;2.85;1.50;;;24.50;55.90;;;;;;5011404;28;20034;-47
2021/06/14 12:52:47;;;;;;;2.72;1.30;;;24.50;56.00;;;;;;5011016;28;20054;-49
2021/06/14 12:55:21;;;;;;;3.50;2.25;;;24.50;56.10;;;;;;5011878;28;20025;-48
2021/06/14 12:57:48;;;;;;;3.45;1.52;;;24.50;56.30;;;;;;5010494;28;20048;-46